sensor_id;sensor_type;location;lat;lon;timestamp;P1;durP1;ratioP1;P2;durP2;ratioP2
17228;SDS011;8731;50.364;8.958;2023-06-22T00:02:03;5.87;;;5.37;;
17228;SDS011;8731;50.364;8.958;2023-06-22T00:06:27;6.40;;;5.90;;
17228;SDS011;8731;50.364;8.958;2023-06-22T00:10:50;7.00;;;6.30;;
17228;SDS011;8731;50.364;8.958;2023-06-22T00:15:12;6.27;;;5.77;;
17228;SDS011;8731;50.364;8.958;2023-06-22T00:19:34;6.43;;;5.83;;
17228;SDS011;8731;50.364;8.958;2023-06-22T00:24:02;6.53;;;5.93;;
17228;SDS011;8731;50.364;8.958;2023-06-22T00:28:27;6.27;;;5.77;;
17228;SDS011;8731;50.364;8.958;2023-06-22T00:32:50;6.37;;;5.87;;
17228;SDS011;8731;50.364;8.958;2023-06-22T00:37:13;7.00;;;5.97;;
17228;SDS011;8731;50.364;8.958;2023-06-22T00:41:36;6.73;;;6.03;;
17228;SDS011;8731;50.364;8.958;2023-06-22T00:46:00;8.43;;;5.90;;
17228;SDS011;8731;50.364;8.958;2023-06-22T00:50:24;7.23;;;6.53;;
17228;SDS011;8731;50.364;8.958;2023-06-22T00:54:53;6.33;;;5.73;;
17228;SDS011;8731;50.364;8.958;2023-06-22T00:59:19;7.40;;;6.47;;
17228;SDS011;8731;50.364;8.958;2023-06-22T01:03:42;6.80;;;6.20;;
17228;SDS011;8731;50.364;8.958;2023-06-22T01:08:08;6.63;;;6.03;;
17228;SDS011;8731;50.364;8.958;2023-06-22T01:12:45;7.13;;;6.53;;
17228;SDS011;8731;50.364;8.958;2023-06-22T01:17:15;7.17;;;6.33;;
17228;SDS011;8731;50.364;8.958;2023-06-22T01:21:41;8.37;;;6.63;;
17228;SDS011;8731;50.364;8.958;2023-06-22T01:26:06;6.73;;;6.07;;
17228;SDS011;8731;50.364;8.958;2023-06-22T01:30:43;6.73;;;6.13;;
17228;SDS011;8731;50.364;8.958;2023-06-22T01:35:09;7.13;;;6.37;;
17228;SDS011;8731;50.364;8.958;2023-06-22T01:39:34;7.43;;;6.30;;
17228;SDS011;8731;50.364;8.958;2023-06-22T01:43:57;7.40;;;6.70;;
17228;SDS011;8731;50.364;8.958;2023-06-22T01:48:23;7.57;;;6.77;;
17228;SDS011;8731;50.364;8.958;2023-06-22T01:52:46;6.80;;;6.20;;
17228;SDS011;8731;50.364;8.958;2023-06-22T01:57:09;9.17;;;7.50;;
17228;SDS011;8731;50.364;8.958;2023-06-22T02:01:35;8.27;;;7.40;;
17228;SDS011;8731;50.364;8.958;2023-06-22T02:06:06;9.80;;;7.83;;
17228;SDS011;8731;50.364;8.958;2023-06-22T02:10:40;8.30;;;7.40;;
17228;SDS011;8731;50.364;8.958;2023-06-22T02:15:05;7.37;;;6.63;;
17228;SDS011;8731;50.364;8.958;2023-06-22T02:19:30;8.47;;;7.63;;
17228;SDS011;8731;50.364;8.958;2023-06-22T02:23:54;8.00;;;7.20;;
17228;SDS011;8731;50.364;8.958;2023-06-22T02:28:17;9.27;;;7.17;;
17228;SDS011;8731;50.364;8.958;2023-06-22T02:32:40;8.80;;;7.80;;
17228;SDS011;8731;50.364;8.958;2023-06-22T02:37:02;9.10;;;8.20;;
17228;SDS011;8731;50.364;8.958;2023-06-22T02:41:27;8.13;;;7.53;;
17228;SDS011;8731;50.364;8.958;2023-06-22T02:45:50;8.87;;;7.97;;
17228;SDS011;8731;50.364;8.958;2023-06-22T02:50:13;10.07;;;7.80;;
17228;SDS011;8731;50.364;8.958;2023-06-22T02:54:36;8.40;;;7.60;;
17228;SDS011;8731;50.364;8.958;2023-06-22T02:59:00;9.40;;;8.50;;
17228;SDS011;8731;50.364;8.958;2023-06-22T03:03:28;8.93;;;8.13;;
17228;SDS011;8731;50.364;8.958;2023-06-22T03:07:50;10.77;;;7.87;;
17228;SDS011;8731;50.364;8.958;2023-06-22T03:12:13;8.30;;;7.63;;
17228;SDS011;8731;50.364;8.958;2023-06-22T03:16:45;9.47;;;8.57;;
17228;SDS011;8731;50.364;8.958;2023-06-22T03:21:07;9.03;;;7.87;;
17228;SDS011;8731;50.364;8.958;2023-06-22T03:25:30;8.47;;;7.77;;
17228;SDS011;8731;50.364;8.958;2023-06-22T03:29:56;9.10;;;8.30;;
17228;SDS011;8731;50.364;8.958;2023-06-22T03:34:23;9.13;;;8.33;;
17228;SDS011;8731;50.364;8.958;2023-06-22T03:38:47;9.67;;;8.87;;
17228;SDS011;8731;50.364;8.958;2023-06-22T03:43:11;10.43;;;9.20;;
17228;SDS011;8731;50.364;8.958;2023-06-22T03:47:34;8.83;;;8.13;;
17228;SDS011;8731;50.364;8.958;2023-06-22T03:51:59;10.20;;;9.30;;
17228;SDS011;8731;50.364;8.958;2023-06-22T03:56:22;9.87;;;8.97;;
17228;SDS011;8731;50.364;8.958;2023-06-22T04:00:44;10.37;;;9.47;;
17228;SDS011;8731;50.364;8.958;2023-06-22T04:05:08;10.13;;;9.23;;
17228;SDS011;8731;50.364;8.958;2023-06-22T04:09:32;9.23;;;8.53;;
17228;SDS011;8731;50.364;8.958;2023-06-22T04:13:55;9.40;;;8.50;;
17228;SDS011;8731;50.364;8.958;2023-06-22T04:18:17;10.30;;;9.30;;
17228;SDS011;8731;50.364;8.958;2023-06-22T04:22:40;8.60;;;7.90;;
17228;SDS011;8731;50.364;8.958;2023-06-22T04:27:04;10.27;;;8.80;;
17228;SDS011;8731;50.364;8.958;2023-06-22T04:31:27;9.80;;;9.00;;
17228;SDS011;8731;50.364;8.958;2023-06-22T04:35:52;10.73;;;9.73;;
17228;SDS011;8731;50.364;8.958;2023-06-22T04:40:14;9.93;;;9.03;;
17228;SDS011;8731;50.364;8.958;2023-06-22T04:44:38;10.03;;;9.13;;
17228;SDS011;8731;50.364;8.958;2023-06-22T04:49:01;10.67;;;9.23;;
17228;SDS011;8731;50.364;8.958;2023-06-22T04:58:03;10.53;;;9.53;;
17228;SDS011;8731;50.364;8.958;2023-06-22T05:02:27;10.47;;;9.43;;
17228;SDS011;8731;50.364;8.958;2023-06-22T05:06:53;10.30;;;9.17;;
17228;SDS011;8731;50.364;8.958;2023-06-22T05:11:16;10.13;;;9.33;;
17228;SDS011;8731;50.364;8.958;2023-06-22T05:15:38;15.17;;;9.67;;
17228;SDS011;8731;50.364;8.958;2023-06-22T05:20:02;14.30;;;9.47;;
17228;SDS011;8731;50.364;8.958;2023-06-22T05:24:27;10.50;;;8.90;;
17228;SDS011;8731;50.364;8.958;2023-06-22T05:28:49;9.67;;;8.60;;
17228;SDS011;8731;50.364;8.958;2023-06-22T05:33:12;10.10;;;8.97;;
17228;SDS011;8731;50.364;8.958;2023-06-22T05:37:40;10.03;;;9.03;;
17228;SDS011;8731;50.364;8.958;2023-06-22T05:42:03;10.63;;;8.07;;
17228;SDS011;8731;50.364;8.958;2023-06-22T05:46:27;11.03;;;8.63;;
17228;SDS011;8731;50.364;8.958;2023-06-22T05:50:50;9.20;;;8.37;;
17228;SDS011;8731;50.364;8.958;2023-06-22T05:55:14;10.47;;;7.90;;
17228;SDS011;8731;50.364;8.958;2023-06-22T05:59:38;9.83;;;7.57;;
17228;SDS011;8731;50.364;8.958;2023-06-22T06:04:01;9.47;;;8.43;;
17228;SDS011;8731;50.364;8.958;2023-06-22T06:08:28;10.50;;;7.93;;
17228;SDS011;8731;50.364;8.958;2023-06-22T06:12:52;9.60;;;8.43;;
17228;SDS011;8731;50.364;8.958;2023-06-22T06:17:14;8.47;;;7.50;;
17228;SDS011;8731;50.364;8.958;2023-06-22T06:21:37;8.80;;;7.90;;
17228;SDS011;8731;50.364;8.958;2023-06-22T06:26:00;9.43;;;8.17;;
17228;SDS011;8731;50.364;8.958;2023-06-22T06:30:24;12.27;;;8.70;;
17228;SDS011;8731;50.364;8.958;2023-06-22T06:34:47;8.93;;;7.87;;
17228;SDS011;8731;50.364;8.958;2023-06-22T06:39:10;9.50;;;7.43;;
17228;SDS011;8731;50.364;8.958;2023-06-22T06:43:35;8.45;;;7.35;;
17228;SDS011;8731;50.364;8.958;2023-06-22T06:47:59;7.82;;;6.60;;
17228;SDS011;8731;50.364;8.958;2023-06-22T06:52:22;7.40;;;6.70;;
17228;SDS011;8731;50.364;8.958;2023-06-22T06:56:46;9.27;;;7.20;;
17228;SDS011;8731;50.364;8.958;2023-06-22T07:01:11;7.78;;;6.80;;
17228;SDS011;8731;50.364;8.958;2023-06-22T07:05:35;9.90;;;6.63;;
17228;SDS011;8731;50.364;8.958;2023-06-22T07:09:57;10.57;;;7.50;;
17228;SDS011;8731;50.364;8.958;2023-06-22T07:14:20;14.52;;;7.55;;
17228;SDS011;8731;50.364;8.958;2023-06-22T07:18:43;10.15;;;6.85;;
17228;SDS011;8731;50.364;8.958;2023-06-22T07:23:07;8.70;;;6.75;;
17228;SDS011;8731;50.364;8.958;2023-06-22T07:27:29;8.30;;;7.20;;
17228;SDS011;8731;50.364;8.958;2023-06-22T07:31:56;7.60;;;6.15;;
17228;SDS011;8731;50.364;8.958;2023-06-22T07:36:20;9.25;;;6.40;;
17228;SDS011;8731;50.364;8.958;2023-06-22T07:40:45;12.70;;;6.38;;
17228;SDS011;8731;50.364;8.958;2023-06-22T07:45:07;10.02;;;6.80;;
17228;SDS011;8731;50.364;8.958;2023-06-22T07:49:31;7.28;;;6.63;;
17228;SDS011;8731;50.364;8.958;2023-06-22T07:53:55;9.80;;;6.50;;
17228;SDS011;8731;50.364;8.958;2023-06-22T07:58:20;9.05;;;6.63;;
17228;SDS011;8731;50.364;8.958;2023-06-22T08:02:44;9.70;;;6.53;;
17228;SDS011;8731;50.364;8.958;2023-06-22T08:07:08;10.25;;;6.85;;
17228;SDS011;8731;50.364;8.958;2023-06-22T08:11:32;7.25;;;6.18;;
17228;SDS011;8731;50.364;8.958;2023-06-22T08:15:56;7.07;;;6.40;;
17228;SDS011;8731;50.364;8.958;2023-06-22T08:20:18;8.63;;;6.13;;
17228;SDS011;8731;50.364;8.958;2023-06-22T08:24:41;7.22;;;6.63;;
17228;SDS011;8731;50.364;8.958;2023-06-22T08:29:03;6.80;;;6.10;;
17228;SDS011;8731;50.364;8.958;2023-06-22T08:33:28;7.13;;;5.93;;
17228;SDS011;8731;50.364;8.958;2023-06-22T08:37:51;6.50;;;6.05;;
17228;SDS011;8731;50.364;8.958;2023-06-22T08:42:16;6.82;;;6.28;;
17228;SDS011;8731;50.364;8.958;2023-06-22T08:46:39;6.88;;;6.28;;
17228;SDS011;8731;50.364;8.958;2023-06-22T08:51:04;6.82;;;5.90;;
17228;SDS011;8731;50.364;8.958;2023-06-22T08:55:26;6.28;;;5.70;;
17228;SDS011;8731;50.364;8.958;2023-06-22T08:59:49;6.78;;;5.75;;
17228;SDS011;8731;50.364;8.958;2023-06-22T09:04:12;6.15;;;5.55;;
17228;SDS011;8731;50.364;8.958;2023-06-22T09:08:36;7.47;;;5.47;;
17228;SDS011;8731;50.364;8.958;2023-06-22T09:12:59;6.38;;;5.80;;
17228;SDS011;8731;50.364;8.958;2023-06-22T09:17:21;6.30;;;5.70;;
17228;SDS011;8731;50.364;8.958;2023-06-22T09:21:44;7.15;;;5.68;;
17228;SDS011;8731;50.364;8.958;2023-06-22T09:26:08;5.93;;;5.43;;
17228;SDS011;8731;50.364;8.958;2023-06-22T09:30:30;6.25;;;5.60;;
17228;SDS011;8731;50.364;8.958;2023-06-22T09:34:53;6.55;;;5.95;;
17228;SDS011;8731;50.364;8.958;2023-06-22T09:39:15;6.30;;;5.80;;
17228;SDS011;8731;50.364;8.958;2023-06-22T09:43:40;5.90;;;5.40;;
17228;SDS011;8731;50.364;8.958;2023-06-22T09:48:02;6.60;;;5.88;;
17228;SDS011;8731;50.364;8.958;2023-06-22T09:52:27;6.82;;;6.22;;
17228;SDS011;8731;50.364;8.958;2023-06-22T09:56:49;6.63;;;6.03;;
17228;SDS011;8731;50.364;8.958;2023-06-22T10:01:13;6.25;;;5.72;;
17228;SDS011;8731;50.364;8.958;2023-06-22T10:05:36;5.90;;;5.30;;
17228;SDS011;8731;50.364;8.958;2023-06-22T10:09:58;5.95;;;5.55;;
17228;SDS011;8731;50.364;8.958;2023-06-22T10:14:21;6.60;;;6.00;;
17228;SDS011;8731;50.364;8.958;2023-06-22T10:18:45;5.85;;;5.38;;
17228;SDS011;8731;50.364;8.958;2023-06-22T10:23:08;5.90;;;5.40;;
17228;SDS011;8731;50.364;8.958;2023-06-22T10:27:30;5.78;;;5.00;;
17228;SDS011;8731;50.364;8.958;2023-06-22T10:31:53;5.80;;;5.30;;
17228;SDS011;8731;50.364;8.958;2023-06-22T10:36:19;5.47;;;5.03;;
17228;SDS011;8731;50.364;8.958;2023-06-22T10:40:42;6.93;;;5.30;;
17228;SDS011;8731;50.364;8.958;2023-06-22T10:45:05;5.38;;;4.88;;
17228;SDS011;8731;50.364;8.958;2023-06-22T10:49:29;5.22;;;4.82;;
17228;SDS011;8731;50.364;8.958;2023-06-22T10:53:53;5.18;;;4.72;;
17228;SDS011;8731;50.364;8.958;2023-06-22T10:58:18;5.50;;;5.00;;
17228;SDS011;8731;50.364;8.958;2023-06-22T11:02:41;5.45;;;5.00;;
17228;SDS011;8731;50.364;8.958;2023-06-22T11:07:05;5.13;;;4.72;;
17228;SDS011;8731;50.364;8.958;2023-06-22T11:11:29;5.80;;;5.20;;
17228;SDS011;8731;50.364;8.958;2023-06-22T11:15:51;5.40;;;5.00;;
17228;SDS011;8731;50.364;8.958;2023-06-22T11:20:14;5.63;;;5.13;;
17228;SDS011;8731;50.364;8.958;2023-06-22T11:24:37;5.95;;;5.32;;
17228;SDS011;8731;50.364;8.958;2023-06-22T11:29:01;6.10;;;5.50;;
17228;SDS011;8731;50.364;8.958;2023-06-22T11:33:25;9.05;;;5.82;;
17228;SDS011;8731;50.364;8.958;2023-06-22T11:37:47;8.77;;;5.53;;
17228;SDS011;8731;50.364;8.958;2023-06-22T11:42:10;6.75;;;5.57;;
17228;SDS011;8731;50.364;8.958;2023-06-22T11:46:34;6.40;;;5.68;;
17228;SDS011;8731;50.364;8.958;2023-06-22T11:50:57;10.95;;;5.93;;
17228;SDS011;8731;50.364;8.958;2023-06-22T11:55:19;6.10;;;5.13;;
17228;SDS011;8731;50.364;8.958;2023-06-22T11:59:42;7.55;;;5.80;;
17228;SDS011;8731;50.364;8.958;2023-06-22T12:04:06;6.15;;;5.55;;
17228;SDS011;8731;50.364;8.958;2023-06-22T12:08:31;8.90;;;6.00;;
17228;SDS011;8731;50.364;8.958;2023-06-22T12:12:54;6.50;;;5.82;;
17228;SDS011;8731;50.364;8.958;2023-06-22T12:17:19;6.80;;;6.13;;
17228;SDS011;8731;50.364;8.958;2023-06-22T12:21:46;6.55;;;5.95;;
17228;SDS011;8731;50.364;8.958;2023-06-22T12:26:08;6.13;;;5.53;;
17228;SDS011;8731;50.364;8.958;2023-06-22T12:30:30;6.40;;;5.78;;
17228;SDS011;8731;50.364;8.958;2023-06-22T12:34:54;8.73;;;5.95;;
17228;SDS011;8731;50.364;8.958;2023-06-22T12:39:19;6.97;;;5.75;;
17228;SDS011;8731;50.364;8.958;2023-06-22T12:43:42;6.68;;;6.07;;
17228;SDS011;8731;50.364;8.958;2023-06-22T12:48:05;7.05;;;6.30;;
17228;SDS011;8731;50.364;8.958;2023-06-22T12:52:29;6.55;;;5.88;;
17228;SDS011;8731;50.364;8.958;2023-06-22T12:56:55;9.10;;;5.80;;
17228;SDS011;8731;50.364;8.958;2023-06-22T13:01:18;9.38;;;6.28;;
17228;SDS011;8731;50.364;8.958;2023-06-22T13:05:40;8.93;;;6.82;;
17228;SDS011;8731;50.364;8.958;2023-06-22T13:10:03;7.50;;;6.78;;
17228;SDS011;8731;50.364;8.958;2023-06-22T13:14:31;8.10;;;6.72;;
17228;SDS011;8731;50.364;8.958;2023-06-22T13:18:53;9.93;;;6.82;;
17228;SDS011;8731;50.364;8.958;2023-06-22T13:23:16;9.13;;;7.07;;
17228;SDS011;8731;50.364;8.958;2023-06-22T13:27:39;11.15;;;6.78;;
17228;SDS011;8731;50.364;8.958;2023-06-22T13:32:05;8.75;;;7.03;;
17228;SDS011;8731;50.364;8.958;2023-06-22T13:36:29;10.38;;;7.78;;
17228;SDS011;8731;50.364;8.958;2023-06-22T13:40:52;10.57;;;7.40;;
17228;SDS011;8731;50.364;8.958;2023-06-22T13:45:16;10.45;;;7.45;;
17228;SDS011;8731;50.364;8.958;2023-06-22T13:49:43;8.45;;;7.32;;
17228;SDS011;8731;50.364;8.958;2023-06-22T13:54:06;8.88;;;7.65;;
17228;SDS011;8731;50.364;8.958;2023-06-22T13:58:29;10.88;;;6.60;;
17228;SDS011;8731;50.364;8.958;2023-06-22T14:02:51;18.58;;;7.63;;
17228;SDS011;8731;50.364;8.958;2023-06-22T14:07:17;12.15;;;7.30;;
17228;SDS011;8731;50.364;8.958;2023-06-22T14:11:44;11.52;;;7.03;;
17228;SDS011;8731;50.364;8.958;2023-06-22T14:16:09;9.82;;;7.53;;
17228;SDS011;8731;50.364;8.958;2023-06-22T14:20:50;14.55;;;7.00;;
17228;SDS011;8731;50.364;8.958;2023-06-22T14:25:24;12.65;;;7.15;;
17228;SDS011;8731;50.364;8.958;2023-06-22T14:29:49;8.30;;;6.30;;
17228;SDS011;8731;50.364;8.958;2023-06-22T14:34:20;8.02;;;6.15;;
17228;SDS011;8731;50.364;8.958;2023-06-22T14:38:44;9.30;;;6.40;;
17228;SDS011;8731;50.364;8.958;2023-06-22T14:43:11;10.88;;;6.55;;
17228;SDS011;8731;50.364;8.958;2023-06-22T14:47:33;9.07;;;6.80;;
17228;SDS011;8731;50.364;8.958;2023-06-22T14:51:57;8.15;;;6.45;;
17228;SDS011;8731;50.364;8.958;2023-06-22T14:56:19;10.13;;;6.77;;
17228;SDS011;8731;50.364;8.958;2023-06-22T15:00:45;7.88;;;6.95;;
17228;SDS011;8731;50.364;8.958;2023-06-22T15:05:08;6.60;;;5.60;;
17228;SDS011;8731;50.364;8.958;2023-06-22T15:09:31;8.50;;;6.13;;
17228;SDS011;8731;50.364;8.958;2023-06-22T15:13:54;11.80;;;6.43;;
17228;SDS011;8731;50.364;8.958;2023-06-22T15:18:22;9.83;;;5.53;;
17228;SDS011;8731;50.364;8.958;2023-06-22T15:22:44;12.10;;;6.17;;
17228;SDS011;8731;50.364;8.958;2023-06-22T15:27:07;10.23;;;5.97;;
17228;SDS011;8731;50.364;8.958;2023-06-22T15:31:29;11.27;;;5.20;;
17228;SDS011;8731;50.364;8.958;2023-06-22T15:35:54;13.90;;;6.10;;
17228;SDS011;8731;50.364;8.958;2023-06-22T15:40:23;10.50;;;6.03;;
17228;SDS011;8731;50.364;8.958;2023-06-22T15:44:46;11.73;;;6.17;;
17228;SDS011;8731;50.364;8.958;2023-06-22T15:49:08;7.37;;;5.60;;
17228;SDS011;8731;50.364;8.958;2023-06-22T15:53:32;7.87;;;5.60;;
17228;SDS011;8731;50.364;8.958;2023-06-22T15:57:55;8.50;;;5.70;;
17228;SDS011;8731;50.364;8.958;2023-06-22T16:02:17;13.27;;;6.63;;
17228;SDS011;8731;50.364;8.958;2023-06-22T16:06:40;13.07;;;6.63;;
17228;SDS011;8731;50.364;8.958;2023-06-22T16:11:05;9.70;;;5.77;;
17228;SDS011;8731;50.364;8.958;2023-06-22T16:15:30;11.77;;;5.93;;
17228;SDS011;8731;50.364;8.958;2023-06-22T16:19:53;12.53;;;6.00;;
17228;SDS011;8731;50.364;8.958;2023-06-22T16:24:18;15.97;;;6.23;;
17228;SDS011;8731;50.364;8.958;2023-06-22T16:28:42;12.20;;;6.50;;
17228;SDS011;8731;50.364;8.958;2023-06-22T16:33:04;13.03;;;6.50;;
17228;SDS011;8731;50.364;8.958;2023-06-22T16:37:27;9.57;;;5.73;;
17228;SDS011;8731;50.364;8.958;2023-06-22T16:41:51;15.73;;;6.07;;
17228;SDS011;8731;50.364;8.958;2023-06-22T16:46:16;12.87;;;4.57;;
17228;SDS011;8731;50.364;8.958;2023-06-22T16:50:39;8.77;;;3.40;;
17228;SDS011;8731;50.364;8.958;2023-06-22T16:55:01;5.63;;;3.23;;
17228;SDS011;8731;50.364;8.958;2023-06-22T16:59:25;83.20;;;7.13;;
17228;SDS011;8731;50.364;8.958;2023-06-22T17:03:50;10.77;;;3.93;;
17228;SDS011;8731;50.364;8.958;2023-06-22T17:08:23;5.33;;;2.43;;
17228;SDS011;8731;50.364;8.958;2023-06-22T17:12:50;7.70;;;2.77;;
17228;SDS011;8731;50.364;8.958;2023-06-22T17:17:13;7.00;;;2.90;;
17228;SDS011;8731;50.364;8.958;2023-06-22T17:21:43;9.03;;;3.13;;
17228;SDS011;8731;50.364;8.958;2023-06-22T17:26:09;9.87;;;2.90;;
17228;SDS011;8731;50.364;8.958;2023-06-22T17:30:34;7.07;;;3.00;;
17228;SDS011;8731;50.364;8.958;2023-06-22T17:34:58;6.20;;;2.93;;
17228;SDS011;8731;50.364;8.958;2023-06-22T17:39:24;8.97;;;3.13;;
17228;SDS011;8731;50.364;8.958;2023-06-22T17:43:48;8.20;;;3.20;;
17228;SDS011;8731;50.364;8.958;2023-06-22T17:48:11;7.67;;;2.97;;
17228;SDS011;8731;50.364;8.958;2023-06-22T17:52:34;6.13;;;2.80;;
17228;SDS011;8731;50.364;8.958;2023-06-22T17:56:58;12.47;;;3.07;;
17228;SDS011;8731;50.364;8.958;2023-06-22T18:01:28;6.63;;;2.97;;
17228;SDS011;8731;50.364;8.958;2023-06-22T18:05:55;13.43;;;3.17;;
17228;SDS011;8731;50.364;8.958;2023-06-22T18:10:19;6.90;;;3.10;;
17228;SDS011;8731;50.364;8.958;2023-06-22T18:14:42;6.63;;;3.50;;
17228;SDS011;8731;50.364;8.958;2023-06-22T18:19:05;4.93;;;2.97;;
17228;SDS011;8731;50.364;8.958;2023-06-22T18:23:29;8.30;;;3.10;;
17228;SDS011;8731;50.364;8.958;2023-06-22T18:27:56;7.37;;;2.97;;
17228;SDS011;8731;50.364;8.958;2023-06-22T18:32:20;7.73;;;3.23;;
17228;SDS011;8731;50.364;8.958;2023-06-22T18:36:45;6.90;;;3.40;;
17228;SDS011;8731;50.364;8.958;2023-06-22T18:41:19;6.23;;;2.80;;
17228;SDS011;8731;50.364;8.958;2023-06-22T18:45:43;5.87;;;3.00;;
17228;SDS011;8731;50.364;8.958;2023-06-22T18:50:08;5.00;;;3.10;;
17228;SDS011;8731;50.364;8.958;2023-06-22T18:54:32;9.97;;;3.63;;
17228;SDS011;8731;50.364;8.958;2023-06-22T18:58:57;7.00;;;3.50;;
17228;SDS011;8731;50.364;8.958;2023-06-22T19:03:29;7.17;;;3.17;;
17228;SDS011;8731;50.364;8.958;2023-06-22T19:07:59;7.97;;;2.80;;
17228;SDS011;8731;50.364;8.958;2023-06-22T19:12:23;6.17;;;2.80;;
17228;SDS011;8731;50.364;8.958;2023-06-22T19:16:46;8.90;;;3.40;;
17228;SDS011;8731;50.364;8.958;2023-06-22T19:21:22;10.23;;;3.20;;
17228;SDS011;8731;50.364;8.958;2023-06-22T19:25:47;9.17;;;3.47;;
17228;SDS011;8731;50.364;8.958;2023-06-22T19:30:11;5.23;;;2.70;;
17228;SDS011;8731;50.364;8.958;2023-06-22T19:34:39;5.70;;;3.40;;
17228;SDS011;8731;50.364;8.958;2023-06-22T19:39:07;6.27;;;3.40;;
17228;SDS011;8731;50.364;8.958;2023-06-22T19:43:33;7.97;;;3.13;;
17228;SDS011;8731;50.364;8.958;2023-06-22T19:47:56;8.83;;;3.37;;
17228;SDS011;8731;50.364;8.958;2023-06-22T19:52:19;11.00;;;3.27;;
17228;SDS011;8731;50.364;8.958;2023-06-22T19:56:41;8.87;;;3.30;;
17228;SDS011;8731;50.364;8.958;2023-06-22T20:01:06;9.83;;;3.40;;
17228;SDS011;8731;50.364;8.958;2023-06-22T20:05:28;6.73;;;3.27;;
17228;SDS011;8731;50.364;8.958;2023-06-22T20:10:04;9.93;;;4.27;;
17228;SDS011;8731;50.364;8.958;2023-06-22T20:14:30;6.93;;;4.10;;
17228;SDS011;8731;50.364;8.958;2023-06-22T20:19:07;10.23;;;3.83;;
17228;SDS011;8731;50.364;8.958;2023-06-22T20:23:35;8.10;;;3.40;;
17228;SDS011;8731;50.364;8.958;2023-06-22T20:28:03;10.43;;;3.73;;
17228;SDS011;8731;50.364;8.958;2023-06-22T20:32:30;12.57;;;3.83;;
17228;SDS011;8731;50.364;8.958;2023-06-22T20:36:55;9.37;;;4.13;;
17228;SDS011;8731;50.364;8.958;2023-06-22T20:41:17;7.77;;;3.67;;
17228;SDS011;8731;50.364;8.958;2023-06-22T20:45:39;10.23;;;4.37;;
17228;SDS011;8731;50.364;8.958;2023-06-22T20:50:02;9.73;;;3.50;;
17228;SDS011;8731;50.364;8.958;2023-06-22T20:54:33;9.67;;;4.50;;
17228;SDS011;8731;50.364;8.958;2023-06-22T20:58:56;9.63;;;4.17;;
17228;SDS011;8731;50.364;8.958;2023-06-22T21:03:18;6.40;;;4.10;;
17228;SDS011;8731;50.364;8.958;2023-06-22T21:07:42;12.63;;;4.33;;
17228;SDS011;8731;50.364;8.958;2023-06-22T21:12:07;14.70;;;4.53;;
17228;SDS011;8731;50.364;8.958;2023-06-22T21:16:30;12.47;;;3.70;;
17228;SDS011;8731;50.364;8.958;2023-06-22T21:20:53;8.77;;;4.07;;
17228;SDS011;8731;50.364;8.958;2023-06-22T21:25:16;12.97;;;4.47;;
17228;SDS011;8731;50.364;8.958;2023-06-22T21:29:40;10.47;;;4.40;;
17228;SDS011;8731;50.364;8.958;2023-06-22T21:34:03;8.87;;;4.07;;
17228;SDS011;8731;50.364;8.958;2023-06-22T21:38:25;10.30;;;4.07;;
17228;SDS011;8731;50.364;8.958;2023-06-22T21:42:48;8.53;;;3.03;;
17228;SDS011;8731;50.364;8.958;2023-06-22T21:47:12;9.73;;;2.50;;
17228;SDS011;8731;50.364;8.958;2023-06-22T21:51:35;8.53;;;2.67;;
17228;SDS011;8731;50.364;8.958;2023-06-22T21:55:59;6.97;;;2.87;;
17228;SDS011;8731;50.364;8.958;2023-06-22T22:00:21;9.63;;;2.40;;
17228;SDS011;8731;50.364;8.958;2023-06-22T22:04:45;6.83;;;2.40;;
17228;SDS011;8731;50.364;8.958;2023-06-22T22:09:08;9.43;;;2.33;;
17228;SDS011;8731;50.364;8.958;2023-06-22T22:13:30;9.50;;;2.47;;
17228;SDS011;8731;50.364;8.958;2023-06-22T22:17:55;10.57;;;1.90;;
17228;SDS011;8731;50.364;8.958;2023-06-22T22:22:25;5.60;;;1.53;;
17228;SDS011;8731;50.364;8.958;2023-06-22T22:26:47;7.20;;;2.00;;
17228;SDS011;8731;50.364;8.958;2023-06-22T22:31:10;5.90;;;1.60;;
17228;SDS011;8731;50.364;8.958;2023-06-22T22:35:32;5.90;;;1.40;;
17228;SDS011;8731;50.364;8.958;2023-06-22T22:39:56;7.43;;;1.40;;
17228;SDS011;8731;50.364;8.958;2023-06-22T22:44:20;5.47;;;1.47;;
17228;SDS011;8731;50.364;8.958;2023-06-22T22:48:43;7.30;;;1.20;;
17228;SDS011;8731;50.364;8.958;2023-06-22T22:53:28;7.83;;;1.70;;
17228;SDS011;8731;50.364;8.958;2023-06-22T22:57:53;4.63;;;1.10;;
17228;SDS011;8731;50.364;8.958;2023-06-22T23:02:15;5.40;;;1.33;;
17228;SDS011;8731;50.364;8.958;2023-06-22T23:06:38;4.80;;;1.20;;
17228;SDS011;8731;50.364;8.958;2023-06-22T23:11:00;4.40;;;1.00;;
17228;SDS011;8731;50.364;8.958;2023-06-22T23:15:24;4.23;;;1.07;;
17228;SDS011;8731;50.364;8.958;2023-06-22T23:19:50;3.47;;;1.00;;
17228;SDS011;8731;50.364;8.958;2023-06-22T23:24:14;2.67;;;1.17;;
17228;SDS011;8731;50.364;8.958;2023-06-22T23:28:36;2.87;;;1.13;;
17228;SDS011;8731;50.364;8.958;2023-06-22T23:33:00;3.73;;;1.77;;
17228;SDS011;8731;50.364;8.958;2023-06-22T23:37:26;3.57;;;2.10;;
17228;SDS011;8731;50.364;8.958;2023-06-22T23:41:49;2.47;;;2.07;;
17228;SDS011;8731;50.364;8.958;2023-06-22T23:46:11;3.73;;;2.67;;
17228;SDS011;8731;50.364;8.958;2023-06-22T23:50:35;2.90;;;2.27;;
17228;SDS011;8731;50.364;8.958;2023-06-22T23:55:04;2.37;;;2.17;;
17228;SDS011;8731;50.364;8.958;2023-06-22T23:59:28;3.93;;;2.50;;
